Time;durP1;ratioP1;P1;durP2;ratioP2;P2;SDS_P1;SDS_P2;PMS_P1;PMS_P2;Temp;Humidity;BMP_temperature;BMP_pressure;BME280_temperature;BME280_humidity;BME280_pressure;Samples;Min_cycle;Max_cycle;Signal;HPM_P1;HPM_P2
2023/03/15 00:01:18;;;;;;;5.93;1.30;;;4.40;99.90;;;;;;5033742;28;20285;-77
2023/03/15 00:03:45;;;;;;;7.17;1.23;;;4.40;99.90;;;;;;5033140;28;20206;-78
2023/03/15 00:06:13;;;;;;;7.60;2.30;;;4.40;99.90;;;;;;5033948;28;20290;-78
2023/03/15 00:08:40;;;;;;;5.13;1.27;;;4.40;99.90;;;;;;5033498;28;20290;-78
2023/03/15 00:11:07;;;;;;;4.30;1.10;;;4.40;99.90;;;;;;5032703;28;20294;-76
2023/03/15 00:13:34;;;;;;;7.70;1.30;;;4.40;99.90;;;;;;5033055;28;20217;-78
2023/03/15 00:16:02;;;;;;;2.20;1.00;;;4.50;99.90;;;;;;5033761;28;20648;-78
2023/03/15 00:18:31;;;;;;;5.53;1.20;;;4.50;99.90;;;;;;5032965;28;20214;-77
2023/03/15 00:20:58;;;;;;;7.40;1.33;;;4.40;99.90;;;;;;5033683;28;20213;-78
2023/03/15 00:23:25;;;;;;;4.90;1.03;;;4.40;99.90;;;;;;5032736;28;20286;-78
2023/03/15 00:25:53;;;;;;;5.37;1.20;;;4.40;99.90;;;;;;5033134;28;20664;-78
2023/03/15 00:28:20;;;;;;;5.97;1.23;;;4.50;99.90;;;;;;5033627;28;20261;-78
2023/03/15 00:30:47;;;;;;;4.00;1.50;;;4.50;99.90;;;;;;5032684;28;20286;-78
2023/03/15 00:33:14;;;;;;;9.13;2.37;;;4.40;99.90;;;;;;5032786;28;20561;-77
2023/03/15 00:35:45;;;;;;;4.13;1.30;;;4.50;99.90;;;;;;5032664;28;20289;-78
2023/03/15 00:38:12;;;;;;;6.27;1.20;;;4.40;99.90;;;;;;5032222;28;20225;-78
2023/03/15 00:40:39;;;;;;;7.93;1.40;;;4.40;99.90;;;;;;5032789;28;20206;-77
2023/03/15 00:43:06;;;;;;;9.73;1.83;;;4.40;99.90;;;;;;5032931;28;20206;-77
2023/03/15 00:45:33;;;;;;;7.57;1.73;;;4.40;99.90;;;;;;5052215;28;20333;-77
2023/03/15 00:48:00;;;;;;;6.97;1.87;;;4.40;99.90;;;;;;5053116;28;20198;-77
2023/03/15 00:50:27;;;;;;;4.00;1.40;;;4.40;99.90;;;;;;5050253;28;20626;-77
2023/03/15 00:52:55;;;;;;;5.57;1.10;;;4.40;99.90;;;;;;5032502;28;20221;-77
2023/03/15 00:55:22;;;;;;;7.77;1.70;;;4.40;99.90;;;;;;5032702;28;20250;-77
2023/03/15 00:57:49;;;;;;;7.17;1.33;;;4.40;99.90;;;;;;5032912;28;20691;-77
2023/03/15 01:00:22;;;;;;;11.87;1.63;;;4.50;99.90;;;;;;5032192;28;20278;-78
2023/03/15 01:02:49;;;;;;;6.43;1.80;;;4.60;99.90;;;;;;5032329;28;20221;-78
2023/03/15 01:05:16;;;;;;;12.87;2.33;;;4.60;99.90;;;;;;5032537;28;20305;-77
2023/03/15 01:07:44;;;;;;;7.37;2.00;;;4.70;99.90;;;;;;5032206;28;20300;-77
2023/03/15 01:10:14;;;;;;;7.07;1.53;;;4.70;99.90;;;;;;5032789;28;20614;-78
2023/03/15 01:12:41;;;;;;;7.47;1.97;;;4.70;99.90;;;;;;5032174;28;20252;-78
2023/03/15 01:15:12;;;;;;;8.57;1.77;;;4.80;99.90;;;;;;5032740;28;20739;-77
2023/03/15 01:17:39;;;;;;;8.00;1.57;;;4.70;99.90;;;;;;5032650;28;20286;-77
2023/03/15 01:20:08;;;;;;;9.20;1.80;;;4.70;99.90;;;;;;5031646;28;20203;-78
2023/03/15 01:22:34;;;;;;;10.77;1.50;;;4.70;99.90;;;;;;5032024;28;20919;-78
2023/03/15 01:25:01;;;;;;;8.67;1.90;;;4.60;99.90;;;;;;5032321;28;20662;-78
2023/03/15 01:27:30;;;;;;;4.27;1.43;;;4.50;99.90;;;;;;5031591;28;20293;-78
2023/03/15 01:29:57;;;;;;;9.00;1.90;;;4.40;99.90;;;;;;5032285;28;20282;-78
2023/03/15 01:32:23;;;;;;;7.33;2.13;;;4.40;99.90;;;;;;5031975;28;20551;-78
2023/03/15 01:34:50;;;;;;;6.33;1.40;;;4.30;99.90;;;;;;5031489;28;20285;-78
2023/03/15 01:37:17;;;;;;;7.87;1.97;;;4.20;99.90;;;;;;5032321;28;20203;-77
2023/03/15 01:39:44;;;;;;;8.63;1.93;;;4.20;99.90;;;;;;5032199;28;20204;-78
2023/03/15 01:42:11;;;;;;;7.17;1.70;;;4.10;99.90;;;;;;5040011;28;20194;-77
2023/03/15 01:44:55;;;;;;;9.37;1.53;;;4.00;99.90;;;;;;5031330;28;20558;-77
2023/03/15 01:47:24;;;;;;;10.20;2.30;;;4.00;99.90;;;;;;5031991;28;20194;-78
2023/03/15 01:49:56;;;;;;;5.63;2.13;;;3.90;99.90;;;;;;5031569;28;20210;-77
2023/03/15 01:52:26;;;;;;;4.70;1.30;;;3.90;99.90;;;;;;5032205;28;20251;-77
2023/03/15 01:54:56;;;;;;;5.90;1.20;;;3.80;99.90;;;;;;5031507;28;20226;-77
2023/03/15 01:57:27;;;;;;;9.43;1.50;;;3.80;99.90;;;;;;5031540;28;20609;-77
2023/03/15 02:00:00;;;;;;;4.40;1.30;;;3.70;99.90;;;;;;5032114;28;20273;-77
2023/03/15 02:02:28;;;;;;;7.30;1.50;;;3.70;99.90;;;;;;5031247;28;20238;-76
2023/03/15 02:05:03;;;;;;;6.77;1.80;;;3.60;99.90;;;;;;5031837;28;20215;-77
2023/03/15 02:07:33;;;;;;;3.93;1.20;;;3.60;99.90;;;;;;5032201;28;20194;-76
2023/03/15 02:10:04;;;;;;;8.40;1.90;;;3.50;99.90;;;;;;5031080;28;20234;-76
2023/03/15 02:12:33;;;;;;;10.67;1.97;;;3.50;99.90;;;;;;5040033;28;20190;-76
2023/03/15 02:15:04;;;;;;;9.03;2.57;;;3.50;99.90;;;;;;5032802;28;20289;-77
2023/03/15 02:17:36;;;;;;;5.40;1.30;;;3.50;99.90;;;;;;5035307;28;20281;-77
2023/03/15 02:20:12;;;;;;;5.10;1.30;;;3.40;99.90;;;;;;5035875;28;20286;-76
2023/03/15 02:22:45;;;;;;;3.20;1.03;;;3.40;99.90;;;;;;5035556;28;20634;-76
2023/03/15 02:25:20;;;;;;;7.10;2.03;;;3.40;99.90;;;;;;5034995;28;20513;-76
2023/03/15 02:27:48;;;;;;;7.00;1.70;;;3.30;99.90;;;;;;5035632;28;20433;-77
2023/03/15 02:30:15;;;;;;;7.27;1.87;;;3.30;99.90;;;;;;5035213;28;20313;-76
2023/03/15 02:32:43;;;;;;;6.00;1.57;;;3.30;99.90;;;;;;5035662;28;20286;-76
2023/03/15 02:35:10;;;;;;;7.30;1.87;;;3.30;99.90;;;;;;5035388;28;20281;-76
2023/03/15 02:37:36;;;;;;;11.20;1.67;;;3.20;99.90;;;;;;5034974;28;20711;-76
2023/03/15 02:40:17;;;;;;;5.13;1.93;;;3.20;99.90;;;;;;5035603;28;20565;-77
2023/03/15 02:42:44;;;;;;;8.53;2.47;;;3.20;99.90;;;;;;5035011;28;20958;-77
2023/03/15 02:45:13;;;;;;;7.30;1.53;;;3.20;99.90;;;;;;5034578;28;20772;-77
2023/03/15 02:47:40;;;;;;;5.93;1.43;;;3.20;99.90;;;;;;5018036;28;20285;-76
2023/03/15 02:50:08;;;;;;;12.60;2.20;;;3.20;99.90;;;;;;5035305;28;20694;-76
2023/03/15 02:52:35;;;;;;;9.97;2.00;;;3.20;99.90;;;;;;5034603;28;20212;-75
2023/03/15 02:55:02;;;;;;;8.10;1.80;;;3.20;99.90;;;;;;5035201;28;20285;-76
2023/03/15 02:57:29;;;;;;;11.63;1.97;;;3.30;99.90;;;;;;5035204;28;20202;-76
2023/03/15 02:59:57;;;;;;;10.03;1.37;;;3.30;99.90;;;;;;5034370;28;20201;-76
2023/03/15 03:02:25;;;;;;;4.60;1.47;;;3.40;99.90;;;;;;5034809;28;20203;-77
2023/03/15 03:04:52;;;;;;;9.17;1.60;;;3.50;99.90;;;;;;5034438;28;20317;-76
2023/03/15 03:07:19;;;;;;;10.33;2.73;;;3.50;99.90;;;;;;5033827;28;20205;-76
2023/03/15 03:09:46;;;;;;;7.27;1.30;;;3.50;99.90;;;;;;5034595;28;20542;-76
2023/03/15 03:12:13;;;;;;;8.03;1.37;;;3.50;99.90;;;;;;5034105;28;20202;-77
2023/03/15 03:14:42;;;;;;;4.13;1.17;;;3.50;99.90;;;;;;5034421;28;20298;-77
2023/03/15 03:17:09;;;;;;;14.87;1.50;;;3.50;99.90;;;;;;5034968;28;20233;-77
2023/03/15 03:19:38;;;;;;;8.90;1.53;;;3.50;99.90;;;;;;5034377;28;20225;-77
2023/03/15 03:22:05;;;;;;;7.30;1.33;;;3.50;99.90;;;;;;5035067;28;20286;-77
2023/03/15 03:24:32;;;;;;;7.17;1.40;;;3.50;99.90;;;;;;5034191;28;20310;-77
2023/03/15 03:26:59;;;;;;;7.07;1.80;;;3.50;99.90;;;;;;5033150;28;20195;-77
2023/03/15 03:29:26;;;;;;;6.67;1.70;;;3.60;99.90;;;;;;5034219;28;20306;-76
2023/03/15 03:31:53;;;;;;;8.83;1.57;;;3.60;99.90;;;;;;5034276;28;20313;-77
2023/03/15 03:34:20;;;;;;;6.97;1.80;;;3.60;99.90;;;;;;5033759;28;20205;-77
2023/03/15 03:36:48;;;;;;;7.07;1.60;;;3.60;99.90;;;;;;5034293;28;20230;-76
2023/03/15 03:39:15;;;;;;;8.20;1.80;;;3.60;99.90;;;;;;5034033;28;20290;-77
2023/03/15 03:41:42;;;;;;;6.93;2.03;;;3.50;99.90;;;;;;5033536;28;20194;-77
2023/03/15 03:44:09;;;;;;;5.10;1.73;;;3.50;99.90;;;;;;5034279;28;20281;-77
2023/03/15 03:46:36;;;;;;;9.87;2.07;;;3.50;99.90;;;;;;5033586;28;20246;-77
2023/03/15 03:49:03;;;;;;;6.63;1.40;;;3.50;99.90;;;;;;5033838;28;20286;-76
2023/03/15 03:51:32;;;;;;;6.23;1.47;;;3.50;99.90;;;;;;5033743;28;20309;-77
2023/03/15 03:54:01;;;;;;;8.70;1.83;;;3.50;99.90;;;;;;5033547;28;20238;-77
2023/03/15 03:56:28;;;;;;;5.77;1.73;;;3.60;99.90;;;;;;5033446;28;20199;-78
2023/03/15 03:58:55;;;;;;;3.20;1.30;;;3.70;99.90;;;;;;5037250;28;20296;-77
2023/03/15 04:01:22;;;;;;;9.53;1.57;;;3.80;99.90;;;;;;5053160;28;20281;-77
2023/03/15 04:03:50;;;;;;;6.13;1.67;;;3.70;99.90;;;;;;5038872;28;20302;-75
2023/03/15 04:06:17;;;;;;;3.00;1.30;;;3.60;99.90;;;;;;5038454;28;20300;-75
2023/03/15 04:08:44;;;;;;;7.07;2.03;;;3.50;99.90;;;;;;5052812;28;20201;-75
2023/03/15 04:11:16;;;;;;;8.60;1.60;;;3.40;99.90;;;;;;5053446;28;20305;-77
2023/03/15 04:13:43;;;;;;;7.37;1.30;;;3.40;99.90;;;;;;5052526;28;20240;-76
2023/03/15 04:16:10;;;;;;;6.60;1.67;;;3.30;99.90;;;;;;5052668;28;20200;-76
2023/03/15 04:18:38;;;;;;;6.00;1.73;;;3.40;99.90;;;;;;5053299;28;20206;-76
2023/03/15 04:21:09;;;;;;;7.90;2.30;;;3.30;99.90;;;;;;5047218;28;20290;-75
2023/03/15 04:23:37;;;;;;;9.10;1.67;;;3.30;99.90;;;;;;5032235;28;20202;-76
2023/03/15 04:26:05;;;;;;;3.80;1.10;;;3.30;99.90;;;;;;5033523;28;20250;-76
2023/03/15 04:28:36;;;;;;;4.63;1.40;;;3.30;99.90;;;;;;5033521;28;20306;-77
2023/03/15 04:31:03;;;;;;;10.03;1.53;;;3.20;99.90;;;;;;5033147;28;20199;-77
2023/03/15 04:33:31;;;;;;;4.17;1.43;;;3.10;99.90;;;;;;5033266;28;20281;-77
2023/03/15 04:35:58;;;;;;;9.17;1.83;;;3.00;99.90;;;;;;5032878;28;20549;-76
2023/03/15 04:38:25;;;;;;;5.63;1.33;;;2.90;99.90;;;;;;5031625;28;20591;-77
2023/03/15 04:40:53;;;;;;;4.17;1.33;;;2.90;99.90;;;;;;5033131;28;20285;-77
2023/03/15 04:43:23;;;;;;;4.77;1.30;;;2.80;99.90;;;;;;5032855;28;20610;-77
2023/03/15 04:45:51;;;;;;;2.83;1.37;;;2.80;99.90;;;;;;5031977;28;20246;-77
2023/03/15 04:48:18;;;;;;;4.30;1.20;;;2.70;99.90;;;;;;5032999;28;20202;-78
2023/03/15 04:50:45;;;;;;;3.60;1.50;;;2.70;99.90;;;;;;5032121;28;20297;-77
2023/03/15 04:53:12;;;;;;;8.13;1.23;;;2.70;99.90;;;;;;5033165;28;20290;-78
2023/03/15 04:55:38;;;;;;;7.43;1.80;;;2.70;99.90;;;;;;5032994;28;20203;-78
2023/03/15 04:58:05;;;;;;;3.73;1.03;;;2.60;99.90;;;;;;5032292;28;20832;-78
2023/03/15 05:00:32;;;;;;;5.20;1.20;;;2.60;99.90;;;;;;5032814;28;20281;-78
2023/03/15 05:03:01;;;;;;;2.67;1.10;;;2.60;99.90;;;;;;5032845;28;20487;-79
2023/03/15 05:05:28;;;;;;;3.93;1.20;;;2.60;99.90;;;;;;5032416;28;20596;-79
2023/03/15 05:07:55;;;;;;;3.87;1.30;;;2.60;99.90;;;;;;5032656;28;20203;-79
2023/03/15 05:10:22;;;;;;;4.33;1.23;;;2.60;99.90;;;;;;5032732;28;20567;-79
2023/03/15 05:12:48;;;;;;;2.97;1.13;;;2.60;99.90;;;;;;5032404;28;20206;-79
2023/03/15 05:15:15;;;;;;;6.73;2.00;;;2.60;99.90;;;;;;5033315;28;20201;-80
2023/03/15 05:17:45;;;;;;;11.40;2.43;;;2.60;99.90;;;;;;5032898;28;20237;-79
2023/03/15 05:20:14;;;;;;;3.43;1.23;;;2.60;99.90;;;;;;5032232;28;20587;-80
2023/03/15 05:22:41;;;;;;;5.03;1.80;;;2.50;99.90;;;;;;5050214;28;20229;-78
2023/03/15 05:25:10;;;;;;;3.20;1.10;;;2.50;99.90;;;;;;5052725;28;20305;-79
2023/03/15 05:27:37;;;;;;;4.67;1.30;;;2.50;99.90;;;;;;5052060;28;20222;-79
2023/03/15 05:30:06;;;;;;;3.60;1.57;;;2.40;99.90;;;;;;5037053;28;20210;-80
2023/03/15 05:32:36;;;;;;;5.33;1.63;;;2.40;99.90;;;;;;5032638;28;20290;-80
2023/03/15 05:35:04;;;;;;;2.60;1.00;;;2.30;99.90;;;;;;5032106;28;20183;-79
2023/03/15 05:37:34;;;;;;;2.60;1.40;;;2.30;99.90;;;;;;5032797;28;20273;-79
2023/03/15 05:40:01;;;;;;;2.33;1.23;;;2.30;99.90;;;;;;5032149;28;20222;-81
2023/03/15 05:42:28;;;;;;;2.67;1.20;;;2.20;99.90;;;;;;5031437;28;20198;-80
2023/03/15 05:44:56;;;;;;;3.30;1.27;;;2.20;99.90;;;;;;5032022;28;20283;-79
2023/03/15 05:47:24;;;;;;;5.57;1.60;;;2.20;99.90;;;;;;5031392;28;20490;-78
2023/03/15 05:49:52;;;;;;;7.17;1.63;;;2.20;99.90;;;;;;5031542;28;20234;-78
2023/03/15 05:52:19;;;;;;;6.17;2.13;;;2.10;99.90;;;;;;5031433;28;20603;-78
2023/03/15 05:54:47;;;;;;;3.70;1.57;;;2.10;99.90;;;;;;5034196;28;20205;-79
2023/03/15 05:57:14;;;;;;;4.37;1.50;;;2.10;99.90;;;;;;5037967;28;20302;-78
2023/03/15 05:59:41;;;;;;;3.90;1.40;;;2.10;99.90;;;;;;5031961;28;20198;-78
2023/03/15 06:02:08;;;;;;;2.53;1.23;;;2.10;99.90;;;;;;5031443;28;20293;-77
2023/03/15 06:04:36;;;;;;;5.57;1.57;;;2.10;99.90;;;;;;5032036;28;20206;-78
2023/03/15 06:07:04;;;;;;;4.90;1.63;;;2.10;99.90;;;;;;5036689;28;20301;-76
2023/03/15 06:09:31;;;;;;;4.07;2.07;;;2.10;99.90;;;;;;5031370;28;20285;-77
2023/03/15 06:11:59;;;;;;;4.03;1.30;;;2.10;99.90;;;;;;5031488;28;20580;-77
2023/03/15 06:14:26;;;;;;;5.00;1.30;;;2.10;99.90;;;;;;5032049;28;20285;-77
2023/03/15 06:16:53;;;;;;;4.40;1.70;;;2.10;99.90;;;;;;5031186;28;20198;-77
2023/03/15 06:19:21;;;;;;;6.03;1.30;;;2.10;99.90;;;;;;5030536;28;20611;-77
2023/03/15 06:21:48;;;;;;;3.77;1.50;;;2.10;99.90;;;;;;5030737;28;20217;-76
2023/03/15 06:24:15;;;;;;;2.97;1.60;;;2.10;99.90;;;;;;5030148;28;20678;-76
2023/03/15 06:26:42;;;;;;;2.17;1.60;;;2.10;99.90;;;;;;5030521;28;20254;-78
2023/03/15 06:29:10;;;;;;;3.90;1.40;;;2.00;99.90;;;;;;5029949;28;20297;-77
2023/03/15 06:31:37;;;;;;;6.97;1.60;;;2.00;99.90;;;;;;5030749;28;20294;-77
2023/03/15 06:34:04;;;;;;;2.43;1.47;;;2.00;99.90;;;;;;5031134;28;20691;-77
2023/03/15 06:36:31;;;;;;;4.03;2.00;;;2.00;99.90;;;;;;5031423;28;20212;-77
2023/03/15 06:38:58;;;;;;;4.03;1.50;;;2.00;99.90;;;;;;5031742;28;20206;-77
2023/03/15 06:41:25;;;;;;;2.90;1.73;;;2.00;99.90;;;;;;5031192;28;20293;-76
2023/03/15 06:43:52;;;;;;;5.27;2.27;;;2.00;99.90;;;;;;5030923;28;20231;-77
2023/03/15 06:46:20;;;;;;;6.73;3.00;;;2.00;99.90;;;;;;5031054;28;20317;-76
2023/03/15 06:48:47;;;;;;;10.97;4.10;;;2.00;99.90;;;;;;5031270;28;20294;-77
2023/03/15 06:51:14;;;;;;;5.17;2.67;;;2.00;99.90;;;;;;5045334;28;20194;-77
2023/03/15 06:53:41;;;;;;;6.50;3.27;;;2.00;99.90;;;;;;5050530;28;20206;-76
2023/03/15 06:56:08;;;;;;;7.33;3.20;;;2.10;99.90;;;;;;5039729;28;20293;-76
2023/03/15 06:58:35;;;;;;;4.20;2.53;;;2.00;99.90;;;;;;5030890;28;20289;-76
2023/03/15 07:01:02;;;;;;;5.37;2.80;;;2.10;99.90;;;;;;5032124;28;20808;-76
2023/03/15 07:03:30;;;;;;;6.67;3.13;;;2.10;99.90;;;;;;5051263;28;20252;-75
2023/03/15 07:05:57;;;;;;;8.27;4.90;;;2.10;99.90;;;;;;5042983;28;20341;-76
2023/03/15 07:08:25;;;;;;;11.03;4.47;;;2.10;99.90;;;;;;5034985;28;20281;-78
2023/03/15 07:10:52;;;;;;;7.70;4.07;;;2.10;99.90;;;;;;5034930;28;20301;-76
2023/03/15 07:13:19;;;;;;;10.43;5.53;;;2.10;99.90;;;;;;5034301;28;20195;-76
2023/03/15 07:15:50;;;;;;;9.40;4.77;;;2.10;99.90;;;;;;5034121;28;20312;-77
2023/03/15 07:18:17;;;;;;;8.07;4.20;;;2.20;99.90;;;;;;5035249;28;20274;-76
2023/03/15 07:20:46;;;;;;;9.33;3.83;;;2.20;99.90;;;;;;5054547;28;20293;-77
2023/03/15 07:23:13;;;;;;;8.93;3.57;;;2.20;99.90;;;;;;5047389;28;20209;-76
2023/03/15 07:25:40;;;;;;;8.57;3.37;;;2.20;99.90;;;;;;5033896;28;20314;-76
2023/03/15 07:28:06;;;;;;;6.63;3.20;;;2.30;99.90;;;;;;5034244;28;20319;-76
2023/03/15 07:30:33;;;;;;;5.67;3.20;;;2.30;99.90;;;;;;5034016;28;20314;-76
2023/03/15 07:33:00;;;;;;;7.27;3.40;;;2.30;99.90;;;;;;5033572;28;20294;-77
2023/03/15 07:35:27;;;;;;;6.17;3.13;;;2.40;99.90;;;;;;5034222;28;20230;-77
2023/03/15 07:37:55;;;;;;;10.20;3.60;;;2.40;99.90;;;;;;5034216;28;20302;-77
2023/03/15 07:40:23;;;;;;;10.77;3.57;;;2.40;99.90;;;;;;5033681;28;20572;-77
2023/03/15 07:42:50;;;;;;;4.73;2.73;;;2.50;99.90;;;;;;5032428;28;20693;-77
2023/03/15 07:45:17;;;;;;;6.13;3.20;;;2.50;99.90;;;;;;5052487;28;20261;-78
2023/03/15 07:47:44;;;;;;;14.73;4.00;;;2.50;99.90;;;;;;5043285;28;20716;-80
2023/03/15 07:50:12;;;;;;;9.43;3.67;;;2.60;99.90;;;;;;5033850;28;20659;-80
2023/03/15 07:52:39;;;;;;;7.37;2.97;;;2.70;99.90;;;;;;5033803;28;20229;-81
2023/03/15 07:55:08;;;;;;;7.67;4.10;;;2.70;99.90;;;;;;5043938;28;20296;-81
2023/03/15 07:57:35;;;;;;;7.83;2.90;;;2.90;99.90;;;;;;5054165;28;20198;-81
2023/03/15 08:00:04;;;;;;;5.67;3.20;;;3.00;99.90;;;;;;5053970;28;20289;-81
2023/03/15 08:02:31;;;;;;;9.20;3.20;;;3.10;99.90;;;;;;5047604;28;20641;-81
2023/03/15 08:04:58;;;;;;;6.53;2.70;;;3.20;99.90;;;;;;5033841;28;20198;-82
2023/03/15 08:07:25;;;;;;;10.33;4.20;;;3.30;99.90;;;;;;5034046;28;20233;-80
2023/03/15 08:09:52;;;;;;;7.23;2.50;;;3.40;99.90;;;;;;5033586;28;20208;-81
2023/03/15 08:12:20;;;;;;;10.93;2.80;;;3.50;99.90;;;;;;5034040;28;20226;-82
2023/03/15 08:14:47;;;;;;;6.20;2.10;;;3.70;99.90;;;;;;5033397;28;20294;-82
2023/03/15 08:17:15;;;;;;;5.50;2.87;;;3.70;99.90;;;;;;5034234;28;20230;-81
2023/03/15 08:19:42;;;;;;;5.60;2.00;;;3.80;99.90;;;;;;5033925;28;20211;-82
2023/03/15 08:22:09;;;;;;;6.43;1.80;;;3.80;99.90;;;;;;5034179;28;20663;-81
2023/03/15 08:24:36;;;;;;;8.40;2.43;;;3.90;99.90;;;;;;5034349;28;20692;-82
2023/03/15 08:27:05;;;;;;;7.80;2.17;;;4.00;99.90;;;;;;5033854;28;20229;-80
2023/03/15 08:29:33;;;;;;;6.10;1.90;;;4.00;99.90;;;;;;5033946;28;20615;-82
2023/03/15 08:32:00;;;;;;;4.70;1.73;;;4.10;99.90;;;;;;5034745;28;20198;-82
2023/03/15 08:34:27;;;;;;;11.07;1.73;;;4.10;99.90;;;;;;5034711;28;20211;-82
2023/03/15 08:36:54;;;;;;;7.10;1.50;;;4.10;99.90;;;;;;5034827;28;20199;-84
2023/03/15 08:39:22;;;;;;;9.30;1.80;;;4.20;99.90;;;;;;5034923;28;20238;-84
2023/03/15 08:41:50;;;;;;;5.37;1.40;;;4.30;99.90;;;;;;5045910;28;20212;-83
2023/03/15 08:44:17;;;;;;;12.00;2.43;;;4.30;99.90;;;;;;5054478;28;20256;-83
2023/03/15 08:46:45;;;;;;;8.57;2.97;;;4.40;99.90;;;;;;5051287;28;20325;-82
2023/03/15 08:49:12;;;;;;;7.90;1.57;;;4.40;99.90;;;;;;5034560;28;20285;-83
2023/03/15 08:51:39;;;;;;;5.37;1.73;;;4.40;99.90;;;;;;5034704;28;20310;-82
2023/03/15 08:54:06;;;;;;;12.13;3.00;;;4.40;99.90;;;;;;5034756;28;20286;-84
2023/03/15 08:56:33;;;;;;;7.83;2.10;;;4.40;99.90;;;;;;5047969;28;20224;-83
2023/03/15 08:59:00;;;;;;;5.97;2.23;;;4.40;99.90;;;;;;5054486;28;20653;-83
2023/03/15 09:01:29;;;;;;;5.80;2.07;;;4.40;99.90;;;;;;5055082;28;20284;-82
2023/03/15 09:03:57;;;;;;;8.97;2.50;;;4.40;99.90;;;;;;5054534;28;20262;-83
2023/03/15 09:06:24;;;;;;;8.20;2.30;;;4.40;99.90;;;;;;5035830;28;20627;-83
2023/03/15 09:08:52;;;;;;;6.70;2.70;;;4.40;99.90;;;;;;5033928;28;20213;-83
2023/03/15 09:11:19;;;;;;;7.20;2.70;;;4.40;99.90;;;;;;5034218;28;20907;-82
2023/03/15 09:13:46;;;;;;;7.50;2.27;;;4.50;99.90;;;;;;5034382;28;20237;-83
2023/03/15 09:16:13;;;;;;;4.50;1.80;;;4.70;99.90;;;;;;5034353;28;20281;-81
2023/03/15 09:18:42;;;;;;;8.27;1.73;;;4.80;99.90;;;;;;5047391;28;20289;-83
2023/03/15 09:21:11;;;;;;;4.90;1.83;;;4.90;99.90;;;;;;5054333;28;20236;-84
2023/03/15 09:23:38;;;;;;;7.13;1.77;;;5.10;99.90;;;;;;5053472;28;20293;-82
2023/03/15 09:26:05;;;;;;;9.50;1.87;;;5.20;99.90;;;;;;5051036;28;20566;-80
2023/03/15 09:28:32;;;;;;;7.97;1.57;;;5.40;99.90;;;;;;5033076;28;20587;-80
2023/03/15 09:30:59;;;;;;;11.13;3.03;;;5.50;99.90;;;;;;5032885;28;20217;-81
2023/03/15 09:33:26;;;;;;;6.50;2.30;;;5.50;99.90;;;;;;5032579;28;20206;-81
2023/03/15 09:35:53;;;;;;;6.60;1.80;;;5.60;99.90;;;;;;5032891;28;20593;-80
2023/03/15 09:38:22;;;;;;;6.30;1.83;;;5.70;99.90;;;;;;5033125;28;20218;-80
2023/03/15 09:40:50;;;;;;;6.47;1.60;;;5.70;99.90;;;;;;5031965;28;20203;-80
2023/03/15 09:43:51;;;;;;;6.97;1.80;;;5.70;99.90;;;;;;5032527;28;20282;-80
2023/03/15 09:46:26;;;;;;;5.47;1.60;;;5.70;99.90;;;;;;5026498;28;20325;-80
2023/03/15 09:48:56;;;;;;;5.27;1.20;;;5.80;99.90;;;;;;5032571;28;20553;-80
2023/03/15 09:51:34;;;;;;;4.40;1.37;;;5.90;99.90;;;;;;5032049;28;20209;-80
2023/03/15 09:54:05;;;;;;;5.13;1.57;;;6.00;99.90;;;;;;5049291;28;20198;-80
2023/03/15 09:56:36;;;;;;;4.77;1.20;;;6.20;99.90;;;;;;5051877;28;20205;-80
2023/03/15 09:59:04;;;;;;;6.17;1.57;;;6.40;99.90;;;;;;5041396;28;20237;-78
2023/03/15 10:01:34;;;;;;;4.67;1.97;;;6.50;99.90;;;;;;5031455;28;20289;-80
2023/03/15 10:04:08;;;;;;;7.97;1.30;;;6.70;99.90;;;;;;5031754;28;20208;-80
2023/03/15 10:06:37;;;;;;;7.67;2.23;;;6.90;99.90;;;;;;5032694;28;20224;-80
2023/03/15 10:09:13;;;;;;;5.40;1.47;;;7.00;99.90;;;;;;5049999;28;20624;-79
2023/03/15 10:11:47;;;;;;;3.57;1.20;;;7.10;99.90;;;;;;5051856;28;20288;-79
2023/03/15 10:14:25;;;;;;;7.83;1.80;;;7.20;99.90;;;;;;5045726;28;20284;-78
2023/03/15 10:16:52;;;;;;;5.50;1.27;;;7.40;99.90;;;;;;5051329;28;20206;-79
2023/03/15 10:19:28;;;;;;;4.70;1.33;;;7.50;99.90;;;;;;5051364;28;20576;-79
2023/03/15 10:22:01;;;;;;;7.50;1.60;;;7.60;99.90;;;;;;5051227;28;20284;-78
2023/03/15 10:24:37;;;;;;;4.97;1.90;;;7.70;99.90;;;;;;5032171;28;20207;-78
2023/03/15 10:27:15;;;;;;;5.97;2.37;;;7.80;99.90;;;;;;5031742;28;20210;-78
2023/03/15 10:29:44;;;;;;;5.53;1.67;;;8.00;99.90;;;;;;5031186;28;20195;-78
2023/03/15 10:32:17;;;;;;;6.07;1.83;;;8.20;99.90;;;;;;5031171;28;20692;-78
2023/03/15 10:34:47;;;;;;;5.93;1.10;;;8.30;99.90;;;;;;5031791;28;20210;-78
2023/03/15 10:37:14;;;;;;;6.37;1.50;;;8.50;99.90;;;;;;5033616;28;20194;-78
2023/03/15 10:39:46;;;;;;;5.00;1.73;;;8.60;99.90;;;;;;5035134;28;20231;-78
2023/03/15 10:42:25;;;;;;;5.10;1.17;;;8.70;99.90;;;;;;5035083;28;20278;-76
2023/03/15 10:44:52;;;;;;;5.33;1.10;;;8.80;99.90;;;;;;5048195;28;20329;-78
2023/03/15 10:47:20;;;;;;;4.47;1.30;;;8.90;99.90;;;;;;5055322;28;20221;-77
2023/03/15 10:49:48;;;;;;;4.43;1.30;;;9.00;99.90;;;;;;5049005;28;20290;-77
2023/03/15 10:52:33;;;;;;;6.33;1.30;;;9.00;99.90;;;;;;5034607;28;20293;-76
2023/03/15 10:55:05;;;;;;;5.53;1.50;;;9.00;99.90;;;;;;5034493;28;20199;-76
2023/03/15 10:57:37;;;;;;;5.90;1.10;;;9.00;99.90;;;;;;5033700;28;20779;-76
2023/03/15 11:00:22;;;;;;;6.40;1.43;;;9.10;99.90;;;;;;5034676;28;20201;-75
2023/03/15 11:02:50;;;;;;;4.17;1.00;;;9.10;99.90;;;;;;5019306;28;20499;-76
2023/03/15 11:05:19;;;;;;;5.07;1.20;;;9.20;99.90;;;;;;5034176;28;20264;-75
2023/03/15 11:07:56;;;;;;;4.37;1.20;;;9.20;99.90;;;;;;5033917;28;20307;-75
2023/03/15 11:10:26;;;;;;;4.03;1.30;;;9.30;99.90;;;;;;5034122;28;20625;-76
2023/03/15 11:13:09;;;;;;;3.87;1.33;;;9.40;99.90;;;;;;5034204;28;20623;-77
2023/03/15 11:15:36;;;;;;;8.03;1.70;;;9.50;99.90;;;;;;5034754;28;20589;-77
2023/03/15 11:18:03;;;;;;;6.70;1.63;;;9.60;99.90;;;;;;5033767;28;20807;-77
2023/03/15 11:20:32;;;;;;;3.77;1.67;;;9.60;99.90;;;;;;5034509;28;20230;-77
2023/03/15 11:23:04;;;;;;;7.43;1.57;;;9.60;99.90;;;;;;5034076;28;20814;-77
2023/03/15 11:25:33;;;;;;;2.53;0.90;;;9.60;99.90;;;;;;5033993;28;20574;-77
2023/03/15 11:28:00;;;;;;;1.77;0.80;;;9.70;99.90;;;;;;5034090;28;20685;-77
2023/03/15 11:30:30;;;;;;;5.17;1.43;;;9.80;99.90;;;;;;5033762;28;20246;-77
2023/03/15 11:33:02;;;;;;;6.13;1.20;;;9.80;99.90;;;;;;5033575;28;20207;-77
2023/03/15 11:35:34;;;;;;;6.20;1.30;;;9.90;99.90;;;;;;5034477;28;20270;-77
2023/03/15 11:38:11;;;;;;;3.00;1.10;;;9.80;99.90;;;;;;5034346;28;20281;-77
2023/03/15 11:40:43;;;;;;;3.77;1.20;;;9.70;99.90;;;;;;5053495;28;20208;-78
2023/03/15 11:43:17;;;;;;;2.90;1.00;;;9.80;99.90;;;;;;5051988;28;20240;-80
2023/03/15 11:45:49;;;;;;;2.27;0.90;;;9.80;99.90;;;;;;5033748;28;20249;-77
2023/03/15 11:48:22;;;;;;;5.03;1.10;;;9.90;99.90;;;;;;5033316;28;20622;-77
2023/03/15 11:50:52;;;;;;;5.33;1.40;;;9.80;99.90;;;;;;5051244;28;20204;-77
2023/03/15 11:53:20;;;;;;;3.37;1.43;;;9.90;99.90;;;;;;5052312;28;20625;-77
2023/03/15 11:55:52;;;;;;;2.83;1.00;;;9.90;99.90;;;;;;5054116;28;20277;-77
2023/03/15 11:58:31;;;;;;;3.77;1.17;;;9.90;99.90;;;;;;5054079;28;20198;-78
2023/03/15 12:01:01;;;;;;;3.33;1.00;;;9.90;99.90;;;;;;5052908;28;20297;-77
2023/03/15 12:03:39;;;;;;;7.97;1.40;;;10.00;99.90;;;;;;5037779;28;20550;-78
2023/03/15 12:06:13;;;;;;;5.47;1.70;;;10.10;99.90;;;;;;5033727;28;20202;-77
2023/03/15 12:08:50;;;;;;;5.70;1.70;;;10.30;99.90;;;;;;5033019;28;20349;-78
2023/03/15 12:11:40;;;;;;;7.17;1.87;;;10.40;99.90;;;;;;5033406;28;20733;-78
2023/03/15 12:14:26;;;;;;;4.00;1.13;;;10.50;99.90;;;;;;5032885;28;20281;-78
2023/03/15 12:17:12;;;;;;;4.33;1.63;;;10.60;99.90;;;;;;5033363;28;20302;-78
2023/03/15 12:19:40;;;;;;;7.57;2.00;;;10.70;99.90;;;;;;5032806;28;20268;-78
2023/03/15 12:22:15;;;;;;;6.97;2.40;;;10.90;99.90;;;;;;5033301;28;20234;-77
2023/03/15 12:24:46;;;;;;;5.03;1.43;;;11.00;99.90;;;;;;5033285;28;20209;-78
2023/03/15 12:27:18;;;;;;;9.77;2.87;;;11.10;99.90;;;;;;5033081;28;20821;-78
2023/03/15 12:29:47;;;;;;;7.70;2.07;;;11.20;99.90;;;;;;5032668;28;20207;-78
2023/03/15 12:32:16;;;;;;;7.53;3.40;;;11.30;99.90;;;;;;5033289;28;20249;-78
2023/03/15 12:34:46;;;;;;;8.03;2.70;;;11.40;99.90;;;;;;5033661;28;20213;-78
2023/03/15 12:37:20;;;;;;;5.03;1.70;;;11.50;99.90;;;;;;5033039;28;20588;-78
2023/03/15 12:39:50;;;;;;;6.73;2.23;;;11.50;99.90;;;;;;5033142;28;20729;-77
2023/03/15 12:43:06;;;;;;;6.70;1.93;;;11.60;99.90;;;;;;5051731;28;20201;-79
2023/03/15 12:45:44;;;;;;;5.23;1.93;;;11.60;99.90;;;;;;5050499;28;20627;-78
2023/03/15 12:48:28;;;;;;;5.17;1.37;;;11.70;99.90;;;;;;5053058;28;20206;-78
2023/03/15 12:51:08;;;;;;;5.53;1.47;;;11.70;99.90;;;;;;5033135;28;20226;-78
2023/03/15 12:53:44;;;;;;;6.60;1.30;;;11.70;99.90;;;;;;5037054;28;20292;-79
2023/03/15 12:56:40;;;;;;;5.00;1.37;;;11.70;99.90;;;;;;5051630;28;20499;-79
2023/03/15 12:59:30;;;;;;;4.70;1.37;;;11.70;99.90;;;;;;5049702;28;20531;-78
2023/03/15 13:02:00;;;;;;;2.73;0.90;;;11.70;99.90;;;;;;5052737;28;20293;-79
2023/03/15 13:04:28;;;;;;;5.40;1.30;;;11.70;99.90;;;;;;5050711;28;20244;-79
2023/03/15 13:07:06;;;;;;;6.83;1.70;;;11.70;99.90;;;;;;5051950;28;20285;-78